Time;durP1;ratioP1;P1;durP2;ratioP2;P2;SDS_P1;SDS_P2;PMS_P1;PMS_P2;Temp;Humidity;BMP_temperature;BMP_pressure;BME280_temperature;BME280_humidity;BME280_pressure;Samples;Min_cycle;Max_cycle;Signal;HPM_P1;HPM_P2
2020/12/26 00:00:51;;;;;;;13.60;8.70;;;154.30;2252.80;;;;;;5098125;28;20020;-65
2020/12/26 00:03:16;;;;;;;13.70;9.57;;;154.30;2252.80;;;;;;5098306;28;20031;-66
2020/12/26 00:05:42;;;;;;;17.83;12.15;;;154.30;2252.80;;;;;;5098277;28;20104;-65
2020/12/26 00:08:08;;;;;;;20.33;13.63;;;154.20;2252.80;;;;;;5097939;28;20409;-65
2020/12/26 00:10:34;;;;;;;18.35;12.70;;;154.20;2252.80;;;;;;5098343;28;20107;-65
2020/12/26 00:12:59;;;;;;;24.00;14.63;;;154.20;2252.80;;;;;;5098401;28;20028;-67
2020/12/26 00:15:25;;;;;;;23.52;15.05;;;154.20;2252.80;;;;;;5097246;28;20030;-66
2020/12/26 00:17:51;;;;;;;24.80;16.60;;;154.20;2252.80;;;;;;5098319;28;20028;-65
2020/12/26 00:20:20;;;;;;;24.33;14.70;;;154.10;2252.80;;;;;;5098314;28;20320;-64
2020/12/26 00:22:46;;;;;;;20.17;12.80;;;154.10;2252.80;;;;;;5097992;28;20140;-64
2020/12/26 00:25:12;;;;;;;18.60;12.45;;;154.10;2252.80;;;;;;5098217;28;20064;-66
2020/12/26 00:27:38;;;;;;;17.95;11.57;;;154.10;2252.80;;;;;;5097023;28;20441;-66
2020/12/26 00:30:06;;;;;;;17.60;12.13;;;154.10;2252.80;;;;;;5097529;28;20035;-65
2020/12/26 00:32:33;;;;;;;18.17;12.45;;;154.10;2252.80;;;;;;5098051;28;20052;-66
2020/12/26 00:34:59;;;;;;;18.98;11.93;;;154.10;2252.80;;;;;;5097597;28;20028;-64
2020/12/26 00:37:24;;;;;;;18.35;11.75;;;154.00;2252.80;;;;;;5097311;28;20028;-66
2020/12/26 00:39:50;;;;;;;17.58;11.20;;;154.00;2252.80;;;;;;5097387;28;20059;-64
2020/12/26 00:42:16;;;;;;;17.52;11.40;;;153.90;2252.80;;;;;;5097061;28;20023;-63
2020/12/26 00:44:42;;;;;;;21.95;13.73;;;154.00;2252.80;;;;;;5097636;28;20093;-66
2020/12/26 00:47:07;;;;;;;26.00;16.08;;;154.00;2252.80;;;;;;5097832;28;20024;-67
2020/12/26 00:49:33;;;;;;;25.08;15.38;;;154.00;2252.80;;;;;;5097572;28;20036;-65
2020/12/26 00:51:59;;;;;;;23.55;14.95;;;154.00;2252.80;;;;;;5097520;28;20077;-65
2020/12/26 00:54:25;;;;;;;27.67;15.68;;;154.00;2252.80;;;;;;5097436;28;20032;-66
2020/12/26 00:56:51;;;;;;;29.02;15.10;;;153.90;2252.80;;;;;;5097450;28;20191;-66
2020/12/26 00:59:16;;;;;;;22.80;14.50;;;153.90;2252.80;;;;;;5097726;28;20028;-66
2020/12/26 01:01:42;;;;;;;26.30;14.45;;;154.00;2252.80;;;;;;5097665;28;20032;-65
2020/12/26 01:04:08;;;;;;;23.02;13.23;;;154.00;2252.80;;;;;;5097102;28;20030;-66
2020/12/26 01:06:34;;;;;;;24.38;15.02;;;154.00;2252.80;;;;;;5097082;28;20028;-64
2020/12/26 01:09:00;;;;;;;28.23;15.90;;;154.10;2252.80;;;;;;5097618;28;20020;-67
2020/12/26 01:11:25;;;;;;;22.00;13.82;;;154.00;2252.80;;;;;;5096939;28;20062;-65
2020/12/26 01:13:51;;;;;;;20.95;12.00;;;154.10;2252.80;;;;;;5096979;28;20115;-66
2020/12/26 01:16:17;;;;;;;17.80;11.45;;;153.90;2252.80;;;;;;5097448;28;20064;-67
2020/12/26 01:18:43;;;;;;;20.85;12.15;;;154.00;2252.80;;;;;;5096990;28;20028;-67
2020/12/26 01:21:13;;;;;;;19.10;12.07;;;153.90;2252.80;;;;;;5097164;28;20051;-63
2020/12/26 01:23:41;;;;;;;22.52;12.35;;;153.90;2252.80;;;;;;5097566;28;20028;-64
2020/12/26 01:26:07;;;;;;;20.05;12.30;;;153.90;2252.80;;;;;;5096887;28;20028;-66
2020/12/26 01:28:32;;;;;;;18.63;11.43;;;153.90;2252.80;;;;;;5097165;28;20333;-65
2020/12/26 01:30:58;;;;;;;19.52;12.27;;;153.90;2252.80;;;;;;5097056;28;20023;-65
2020/12/26 01:33:24;;;;;;;21.02;13.18;;;153.90;2252.80;;;;;;5096668;28;20449;-64
2020/12/26 01:35:49;;;;;;;18.77;12.18;;;153.90;2252.80;;;;;;5097287;28;20341;-65
2020/12/26 01:38:15;;;;;;;21.67;13.57;;;153.90;2252.80;;;;;;5096813;28;20148;-65
2020/12/26 01:40:51;;;;;;;20.02;12.93;;;153.90;2252.80;;;;;;5099867;28;20026;-65
2020/12/26 01:43:17;;;;;;;23.80;14.23;;;153.90;2252.80;;;;;;5101085;28;20032;-65
2020/12/26 01:45:44;;;;;;;21.95;14.25;;;153.90;2252.80;;;;;;5101009;28;20470;-64
2020/12/26 01:48:16;;;;;;;23.58;13.85;;;153.90;2252.80;;;;;;5100659;28;20028;-65
2020/12/26 01:50:42;;;;;;;26.45;15.60;;;154.00;2252.80;;;;;;5100971;28;20024;-65
2020/12/26 01:53:10;;;;;;;28.38;16.30;;;154.00;2252.80;;;;;;5100565;28;20417;-67
2020/12/26 01:55:36;;;;;;;26.27;16.00;;;154.00;2252.80;;;;;;5099937;28;20425;-67
2020/12/26 01:58:03;;;;;;;35.40;19.73;;;154.00;2252.80;;;;;;5100714;28;20032;-65
2020/12/26 02:00:29;;;;;;;38.88;21.58;;;154.00;2252.80;;;;;;5100706;28;20106;-65
2020/12/26 02:02:55;;;;;;;36.22;20.73;;;154.10;2252.80;;;;;;5100955;28;20051;-66
2020/12/26 02:05:21;;;;;;;36.20;20.17;;;154.00;2252.80;;;;;;5100559;28;20035;-63
2020/12/26 02:07:47;;;;;;;31.80;19.35;;;154.10;2252.80;;;;;;5100244;28;20302;-66
2020/12/26 02:10:16;;;;;;;27.08;16.15;;;154.20;2252.80;;;;;;5100507;28;20410;-64
2020/12/26 02:12:42;;;;;;;26.38;16.55;;;154.30;2252.80;;;;;;5100172;28;20438;-64
2020/12/26 02:15:12;;;;;;;24.35;14.20;;;154.30;2252.80;;;;;;5100074;28;20028;-64
2020/12/26 02:17:38;;;;;;;22.67;13.63;;;154.40;2252.80;;;;;;5100097;28;20031;-64
2020/12/26 02:20:04;;;;;;;21.98;13.35;;;154.50;2252.80;;;;;;5100036;28;20028;-65
2020/12/26 02:22:30;;;;;;;21.45;13.93;;;179.20;2252.80;;;;;;5099938;28;20031;-65
2020/12/26 02:24:55;;;;;;;23.92;14.27;;;179.20;2252.80;;;;;;5100544;28;20065;-65
2020/12/26 02:27:21;;;;;;;24.88;14.98;;;179.20;2252.80;;;;;;5099888;28;20020;-64
2020/12/26 02:29:47;;;;;;;28.55;14.73;;;179.30;2252.80;;;;;;5100377;28;20031;-66
2020/12/26 02:32:13;;;;;;;21.70;12.85;;;179.20;2252.80;;;;;;5100315;28;20051;-66
2020/12/26 02:34:38;;;;;;;21.88;13.13;;;179.30;2252.80;;;;;;5099457;28;20063;-64
2020/12/26 02:37:04;;;;;;;25.77;14.50;;;179.30;2252.80;;;;;;5099962;28;20425;-65
2020/12/26 02:39:30;;;;;;;25.30;14.35;;;179.40;2252.80;;;;;;5099356;28;20020;-65
2020/12/26 02:41:56;;;;;;;22.45;13.48;;;179.50;2252.80;;;;;;5099885;28;20034;-65
2020/12/26 02:44:22;;;;;;;26.85;16.08;;;179.50;2252.80;;;;;;5099883;28;20028;-67
2020/12/26 02:46:49;;;;;;;27.42;15.20;;;179.30;2252.80;;;;;;5100018;28;20063;-65
2020/12/26 02:49:16;;;;;;;25.15;16.40;;;179.30;2252.80;;;;;;5099450;28;20024;-66
2020/12/26 02:51:42;;;;;;;31.60;18.15;;;179.20;2252.80;;;;;;5098783;28;20405;-64
2020/12/26 02:54:11;;;;;;;31.10;18.40;;;154.50;2252.80;;;;;;5099372;28;20034;-65
2020/12/26 02:56:38;;;;;;;29.88;17.30;;;154.40;2252.80;;;;;;5098900;28;20067;-65
2020/12/26 02:59:05;;;;;;;30.40;17.20;;;154.30;2252.80;;;;;;5099602;28;20055;-64
2020/12/26 03:01:31;;;;;;;34.03;17.63;;;154.20;2252.80;;;;;;5099775;28;20077;-64
2020/12/26 03:03:57;;;;;;;34.30;17.58;;;154.10;2252.80;;;;;;5099210;28;20032;-64
2020/12/26 03:06:23;;;;;;;31.58;16.50;;;154.10;2252.80;;;;;;5099426;28;20024;-63
2020/12/26 03:08:48;;;;;;;35.20;17.85;;;154.10;2252.80;;;;;;5099630;28;20128;-66
2020/12/26 03:11:14;;;;;;;31.75;16.95;;;154.00;2252.80;;;;;;5099334;28;20020;-65
2020/12/26 03:13:40;;;;;;;37.05;17.83;;;154.10;2252.80;;;;;;5099275;28;20024;-65
2020/12/26 03:16:06;;;;;;;35.00;19.48;;;154.00;2252.80;;;;;;5099142;28;20317;-66
2020/12/26 03:18:31;;;;;;;35.15;17.60;;;154.00;2252.80;;;;;;5099475;28;20311;-65
2020/12/26 03:20:57;;;;;;;33.03;17.70;;;153.90;2252.80;;;;;;5099153;28;20069;-66
2020/12/26 03:23:23;;;;;;;33.15;18.70;;;153.90;2252.80;;;;;;5098237;28;20031;-64
2020/12/26 03:25:49;;;;;;;32.20;18.23;;;154.00;2252.80;;;;;;5099301;28;20031;-65
2020/12/26 03:28:14;;;;;;;30.45;16.55;;;153.90;2252.80;;;;;;5098440;28;20034;-64
2020/12/26 03:30:40;;;;;;;34.63;18.38;;;153.90;2252.80;;;;;;5098627;28;20020;-64
2020/12/26 03:33:06;;;;;;;35.35;18.25;;;153.90;2252.80;;;;;;5098707;28;20052;-64
2020/12/26 03:35:31;;;;;;;36.85;19.35;;;153.90;2252.80;;;;;;5099052;28;20041;-66
2020/12/26 03:37:57;;;;;;;35.47;19.20;;;153.80;2252.80;;;;;;5098505;28;20038;-64
2020/12/26 03:40:23;;;;;;;30.15;17.08;;;153.90;2252.80;;;;;;5099080;28;20021;-66
2020/12/26 03:42:49;;;;;;;31.13;16.58;;;153.90;2252.80;;;;;;5098973;28;20031;-67
2020/12/26 03:45:15;;;;;;;35.10;18.00;;;153.90;2252.80;;;;;;5098444;28;20333;-65
2020/12/26 03:47:40;;;;;;;30.42;17.58;;;154.00;2252.80;;;;;;5098632;28;20035;-65
2020/12/26 03:50:06;;;;;;;29.23;16.38;;;154.00;2252.80;;;;;;5098826;28;20329;-64
2020/12/26 03:52:32;;;;;;;31.90;17.48;;;154.10;2252.80;;;;;;5098250;28;20047;-64
2020/12/26 03:54:58;;;;;;;31.70;18.33;;;154.10;2252.80;;;;;;5098696;28;20028;-64
2020/12/26 03:57:23;;;;;;;32.10;17.52;;;154.20;2252.80;;;;;;5098401;28;20430;-64
2020/12/26 03:59:49;;;;;;;30.58;16.08;;;154.30;2252.80;;;;;;5098424;28;20103;-64
2020/12/26 04:02:15;;;;;;;32.90;18.40;;;154.40;2252.80;;;;;;5097795;28;20074;-64
2020/12/26 04:04:41;;;;;;;31.98;17.45;;;154.50;2252.80;;;;;;5098314;28;20028;-65
2020/12/26 04:07:06;;;;;;;31.23;17.40;;;179.20;2252.80;;;;;;5097688;28;20421;-65
2020/12/26 04:09:32;;;;;;;30.73;17.83;;;179.20;2252.80;;;;;;5098513;28;20024;-66
2020/12/26 04:11:58;;;;;;;30.10;17.27;;;154.50;2252.80;;;;;;5097681;28;20075;-66
2020/12/26 04:14:24;;;;;;;32.08;17.60;;;179.30;2252.80;;;;;;5098048;28;20024;-65
2020/12/26 04:16:59;;;;;;;27.85;15.93;;;179.30;2252.80;;;;;;5098349;28;20032;-65
2020/12/26 04:19:26;;;;;;;25.02;15.77;;;179.20;2252.80;;;;;;5098116;28;20020;-63
2020/12/26 04:21:53;;;;;;;30.85;15.88;;;179.20;2252.80;;;;;;5098309;28;20031;-65
2020/12/26 04:24:20;;;;;;;29.48;17.02;;;154.50;2252.80;;;;;;5097620;28;20406;-64
2020/12/26 04:26:46;;;;;;;28.42;16.05;;;154.30;2252.80;;;;;;5097671;28;20024;-65
2020/12/26 04:29:13;;;;;;;30.23;16.27;;;154.20;2252.80;;;;;;5098480;28;20020;-65
2020/12/26 04:31:38;;;;;;;29.38;16.92;;;154.10;2252.80;;;;;;5097787;28;20052;-65
2020/12/26 04:34:04;;;;;;;27.08;15.48;;;154.10;2252.80;;;;;;5097324;28;20031;-66
2020/12/26 04:36:30;;;;;;;32.83;17.88;;;154.00;2252.80;;;;;;5097639;28;20032;-64
2020/12/26 04:38:56;;;;;;;27.60;15.77;;;154.00;2252.80;;;;;;5098018;28;20111;-65
2020/12/26 04:41:22;;;;;;;31.13;17.42;;;153.90;2252.80;;;;;;5097657;28;20425;-65
2020/12/26 04:43:48;;;;;;;29.10;15.70;;;153.90;2252.80;;;;;;5097833;28;20074;-65
2020/12/26 04:46:18;;;;;;;27.27;15.25;;;154.00;2252.80;;;;;;5097624;28;20032;-64
2020/12/26 04:49:02;;;;;;;27.75;14.43;;;154.00;2252.80;;;;;;5097354;28;20031;-64
2020/12/26 04:51:32;;;;;;;30.95;15.73;;;154.00;2252.80;;;;;;5097882;28;20074;-66
2020/12/26 04:54:25;;;;;;;28.90;16.88;;;154.10;2252.80;;;;;;5096753;28;20031;-64
2020/12/26 04:56:56;;;;;;;27.58;15.13;;;154.00;2252.80;;;;;;5097779;28;20039;-64
2020/12/26 04:59:24;;;;;;;26.40;14.90;;;154.00;2252.80;;;;;;5097518;28;20024;-65
2020/12/26 05:01:51;;;;;;;26.15;14.68;;;154.00;2252.80;;;;;;5097147;28;20035;-65
2020/12/26 05:04:17;;;;;;;24.10;14.10;;;154.00;2252.80;;;;;;5097391;28;20028;-65
2020/12/26 05:06:48;;;;;;;26.80;14.68;;;154.00;2252.80;;;;;;5097354;28;20032;-67
2020/12/26 05:09:15;;;;;;;24.02;13.50;;;154.00;2252.80;;;;;;5097074;28;20402;-65
2020/12/26 05:11:49;;;;;;;25.13;13.90;;;154.00;2252.80;;;;;;5097016;28;20107;-64
2020/12/26 05:14:18;;;;;;;25.50;13.73;;;154.00;2252.80;;;;;;5097870;28;20066;-66
2020/12/26 05:16:44;;;;;;;23.50;13.07;;;154.00;2252.80;;;;;;5101324;28;20071;-65
2020/12/26 05:19:10;;;;;;;22.73;12.70;;;153.90;2252.80;;;;;;5101444;28;20425;-66
2020/12/26 05:21:36;;;;;;;27.63;14.15;;;153.90;2252.80;;;;;;5101441;28;20024;-65
2020/12/26 05:24:08;;;;;;;26.35;13.55;;;153.90;2252.80;;;;;;5101086;28;20031;-66
2020/12/26 05:26:39;;;;;;;30.15;14.82;;;153.90;2252.80;;;;;;5101627;28;20401;-64
2020/12/26 05:29:05;;;;;;;28.80;14.23;;;153.90;2252.80;;;;;;5101330;28;20028;-67
2020/12/26 05:31:45;;;;;;;24.70;14.27;;;153.90;2252.80;;;;;;5101040;28;20393;-64
2020/12/26 05:34:11;;;;;;;28.27;15.05;;;153.90;2252.80;;;;;;5101232;28;20028;-64
2020/12/26 05:36:37;;;;;;;27.70;15.25;;;153.80;2252.80;;;;;;5100828;28;20043;-66
2020/12/26 05:39:04;;;;;;;24.90;14.55;;;153.90;2252.80;;;;;;5101120;28;20421;-64
2020/12/26 05:41:30;;;;;;;25.58;13.77;;;153.90;2252.80;;;;;;5101108;28;20028;-65
2020/12/26 05:43:57;;;;;;;23.15;12.95;;;154.00;2252.80;;;;;;5101084;28;20056;-66
2020/12/26 05:46:24;;;;;;;24.17;12.65;;;154.00;2252.80;;;;;;5101291;28;20409;-66
2020/12/26 05:48:50;;;;;;;22.40;11.60;;;153.90;2252.80;;;;;;5101005;28;20031;-66
2020/12/26 05:51:26;;;;;;;24.48;13.90;;;153.90;2252.80;;;;;;5100636;28;20024;-66
2020/12/26 05:53:56;;;;;;;26.02;14.10;;;153.90;2252.80;;;;;;5101150;28;20059;-64
2020/12/26 05:56:22;;;;;;;25.98;14.02;;;153.90;2252.80;;;;;;5101046;28;20037;-65
2020/12/26 05:58:49;;;;;;;21.67;12.60;;;153.90;2252.80;;;;;;5100723;28;20031;-63
2020/12/26 06:01:21;;;;;;;22.95;12.65;;;153.90;2252.80;;;;;;5101010;28;20031;-64
2020/12/26 06:03:47;;;;;;;25.20;13.02;;;153.90;2252.80;;;;;;5100606;28;20115;-66
2020/12/26 06:06:15;;;;;;;23.65;13.18;;;153.90;2252.80;;;;;;5100301;28;20031;-66
2020/12/26 06:08:41;;;;;;;24.08;12.43;;;153.90;2252.80;;;;;;5100874;28;20058;-64
2020/12/26 06:11:08;;;;;;;24.38;12.43;;;153.80;2252.80;;;;;;5100530;28;20407;-64
2020/12/26 06:13:35;;;;;;;22.92;11.57;;;153.80;2252.80;;;;;;5100206;28;20089;-64
2020/12/26 06:16:16;;;;;;;27.23;13.55;;;153.80;2252.80;;;;;;5100621;28;20042;-64
2020/12/26 06:19:03;;;;;;;24.80;13.40;;;153.80;2252.80;;;;;;5100498;28;20028;-64
2020/12/26 06:21:28;;;;;;;28.20;12.93;;;153.80;2252.80;;;;;;5099928;28;20024;-66
2020/12/26 06:23:54;;;;;;;27.48;13.73;;;153.70;2252.80;;;;;;5100571;28;20406;-66
2020/12/26 06:26:21;;;;;;;26.95;14.23;;;153.70;2252.80;;;;;;5100175;28;20055;-65
2020/12/26 06:28:47;;;;;;;31.10;15.10;;;153.70;2252.80;;;;;;5100447;28;20035;-64
2020/12/26 06:31:16;;;;;;;25.33;13.93;;;153.80;2252.80;;;;;;5099940;28;20060;-64
2020/12/26 06:33:50;;;;;;;26.58;14.30;;;153.80;2252.80;;;;;;5100143;28;20019;-65
2020/12/26 06:36:18;;;;;;;26.95;14.48;;;153.80;2252.80;;;;;;5100276;28;20032;-65
2020/12/26 06:38:44;;;;;;;24.77;13.55;;;153.80;2252.80;;;;;;5100291;28;20119;-65
2020/12/26 06:41:17;;;;;;;24.83;13.85;;;153.80;2252.80;;;;;;5099976;28;20048;-65
2020/12/26 06:43:43;;;;;;;26.88;13.20;;;153.80;2252.80;;;;;;5100129;28;20081;-66
2020/12/26 06:46:32;;;;;;;22.48;13.18;;;153.70;2252.80;;;;;;5099857;28;20118;-66
2020/12/26 06:48:59;;;;;;;23.85;12.55;;;153.70;2252.80;;;;;;5099725;28;20020;-65
2020/12/26 06:51:26;;;;;;;24.67;12.82;;;153.70;2252.80;;;;;;5099740;28;20428;-66
2020/12/26 06:53:55;;;;;;;23.80;12.02;;;153.60;2252.80;;;;;;5099454;28;20024;-65
2020/12/26 06:56:35;;;;;;;24.63;13.23;;;153.60;2252.80;;;;;;5099602;28;20032;-66
2020/12/26 06:59:04;;;;;;;24.38;12.43;;;128.90;2252.80;;;;;;5099893;28;20432;-65
2020/12/26 07:01:30;;;;;;;26.38;13.45;;;128.90;2252.80;;;;;;5099313;28;20028;-66
2020/12/26 07:04:11;;;;;;;24.95;12.38;;;128.90;2252.80;;;;;;5099851;28;20031;-64
2020/12/26 07:06:45;;;;;;;26.63;14.30;;;128.80;2252.80;;;;;;5099717;28;20032;-66
2020/12/26 07:09:16;;;;;;;27.63;14.35;;;128.80;2252.80;;;;;;5099121;28;20379;-65
2020/12/26 07:11:47;;;;;;;26.35;12.90;;;128.90;2252.80;;;;;;5099107;28;20020;-65
2020/12/26 07:14:33;;;;;;;25.92;11.77;;;128.80;2252.80;;;;;;5098996;28;20032;-64
2020/12/26 07:17:02;;;;;;;21.52;11.45;;;128.80;2252.80;;;;;;5099551;28;20024;-65
2020/12/26 07:19:47;;;;;;;21.40;11.70;;;128.80;2252.80;;;;;;5098907;28;20028;-65
2020/12/26 07:22:21;;;;;;;22.95;12.13;;;128.90;2252.80;;;;;;5098944;28;20032;-64
2020/12/26 07:24:49;;;;;;;25.48;11.57;;;128.90;2252.80;;;;;;5099170;28;20073;-64
2020/12/26 07:27:36;;;;;;;28.42;12.77;;;128.90;2252.80;;;;;;5099073;28;20020;-65
2020/12/26 07:30:17;;;;;;;26.88;13.13;;;128.90;2252.80;;;;;;5099074;28;20149;-65
2020/12/26 07:32:54;;;;;;;28.80;14.82;;;128.90;2252.80;;;;;;5098893;28;20350;-65
2020/12/26 07:35:19;;;;;;;24.50;13.10;;;128.90;2252.80;;;;;;5098868;28;20032;-62
2020/12/26 07:38:04;;;;;;;27.95;14.60;;;128.90;2252.80;;;;;;5098268;28;20084;-64
2020/12/26 07:40:36;;;;;;;26.42;13.38;;;128.90;2252.80;;;;;;5098624;28;20468;-65
2020/12/26 07:43:04;;;;;;;27.80;15.15;;;128.90;2252.80;;;;;;5098232;28;20119;-65
2020/12/26 07:45:32;;;;;;;30.70;17.55;;;128.80;2252.80;;;;;;5099030;28;20034;-64
2020/12/26 07:48:00;;;;;;;22.40;13.88;;;128.80;2252.80;;;;;;5098746;28;20057;-62
2020/12/26 07:50:28;;;;;;;26.20;13.93;;;128.80;2252.80;;;;;;5098370;28;20024;-65
2020/12/26 07:52:56;;;;;;;28.05;16.27;;;128.70;2252.80;;;;;;5098547;28;20020;-64
2020/12/26 07:55:23;;;;;;;30.20;17.00;;;128.70;2252.80;;;;;;5098198;28;20333;-65
2020/12/26 07:57:49;;;;;;;22.38;13.70;;;128.70;2252.80;;;;;;5098165;28;20019;-63
2020/12/26 08:00:25;;;;;;;28.40;14.77;;;128.60;2252.80;;;;;;5098091;28;20028;-64
2020/12/26 08:02:59;;;;;;;24.73;14.15;;;128.50;2252.80;;;;;;5098311;28;20345;-63
2020/12/26 08:05:30;;;;;;;24.25;14.07;;;128.40;2252.80;;;;;;5098053;28;20329;-64
2020/12/26 08:07:57;;;;;;;23.20;13.75;;;128.40;2252.80;;;;;;5098355;28;20023;-63
2020/12/26 08:10:23;;;;;;;22.45;13.27;;;128.30;2252.80;;;;;;5098110;28;20026;-63
2020/12/26 08:12:50;;;;;;;19.95;12.43;;;128.20;2252.80;;;;;;5097605;28;20488;-63
2020/12/26 08:15:24;;;;;;;25.35;12.73;;;128.10;2252.80;;;;;;5097758;28;20321;-65
2020/12/26 08:18:01;;;;;;;25.50;13.95;;;128.00;2252.80;;;;;;5098127;28;20068;-62
2020/12/26 08:20:29;;;;;;;22.40;13.05;;;128.00;2252.80;;;;;;5098109;28;20035;-62
2020/12/26 08:22:55;;;;;;;21.65;11.60;;;128.00;2252.80;;;;;;5098313;28;20020;-63
2020/12/26 08:25:24;;;;;;;21.45;12.88;;;128.00;2252.80;;;;;;5097981;28;20023;-63
2020/12/26 08:27:50;;;;;;;22.52;12.95;;;128.00;2252.80;;;;;;5098090;28;20030;-62
2020/12/26 08:30:22;;;;;;;18.70;11.35;;;128.00;2252.80;;;;;;5098135;28;20032;-64
2020/12/26 08:32:56;;;;;;;16.17;10.10;;;128.00;2252.80;;;;;;5097847;28;20052;-64
2020/12/26 08:35:25;;;;;;;16.23;10.45;;;128.10;2252.80;;;;;;5097987;28;20020;-65
2020/12/26 08:37:59;;;;;;;16.02;9.85;;;128.10;2252.80;;;;;;5098056;28;20035;-61
2020/12/26 08:40:27;;;;;;;17.88;10.25;;;128.10;2252.80;;;;;;5098078;28;20024;-61
2020/12/26 08:42:53;;;;;;;13.80;9.30;;;128.00;2252.80;;;;;;5097926;28;20081;-61
2020/12/26 08:45:32;;;;;;;16.83;9.40;;;128.00;2252.80;;;;;;5097684;28;20051;-63
2020/12/26 08:48:01;;;;;;;17.40;9.32;;;128.00;2252.80;;;;;;5097851;28;20400;-62
2020/12/26 08:50:28;;;;;;;;;;;103.30;2227.20;;;;;;5097148;28;20028;-62
2020/12/26 08:53:05;;;;;;;15.20;8.57;;;103.30;2227.20;;;;;;5097541;28;19994;-64
2020/12/26 08:55:31;;;;;;;14.77;8.38;;;103.30;2227.20;;;;;;5097449;28;20038;-63
2020/12/26 08:57:58;;;;;;;18.02;8.95;;;103.30;2227.20;;;;;;5097417;28;20038;-62
2020/12/26 09:00:26;;;;;;;13.90;8.98;;;103.30;2227.20;;;;;;5097197;28;20024;-62
2020/12/26 09:02:54;;;;;;;13.15;8.43;;;103.30;2227.20;;;;;;5097282;28;20401;-64
2020/12/26 09:05:25;;;;;;;15.93;9.98;;;103.20;2227.20;;;;;;5096929;28;20076;-64
2020/12/26 09:08:07;;;;;;;15.07;8.63;;;103.30;2227.20;;;;;;5097205;28;20020;-64
2020/12/26 09:10:37;;;;;;;14.07;8.85;;;103.30;2227.20;;;;;;5097338;28;20024;-63
2020/12/26 09:13:05;;;;;;;13.60;8.43;;;103.30;2227.20;;;;;;5096690;28;20055;-63
2020/12/26 09:16:13;;;;;;;14.68;7.97;;;103.30;2227.20;;;;;;5096766;28;20032;-62
2020/12/26 09:18:41;;;;;;;15.57;8.98;;;103.30;2227.20;;;;;;5106291;28;20130;-63
2020/12/26 09:21:18;;;;;;;17.95;9.93;;;128.00;2252.80;;;;;;5114102;28;20035;-63
2020/12/26 09:23:44;;;;;;;17.60;9.75;;;128.00;2252.80;;;;;;5114583;28;20047;-65
2020/12/26 09:26:17;;;;;;;17.10;11.18;;;128.10;2252.80;;;;;;5114538;28;20453;-63
2020/12/26 09:29:00;;;;;;;14.32;7.55;;;128.00;2252.80;;;;;;5105304;28;20031;-64
2020/12/26 09:31:35;;;;;;;45.22;25.48;;;103.20;2227.20;;;;;;5104309;28;20039;-63
2020/12/26 09:34:16;;;;;;;31.40;17.55;;;103.30;2227.20;;;;;;5098426;28;20043;-62
2020/12/26 09:36:42;;;;;;;64.43;38.00;;;103.30;2227.20;;;;;;5097668;28;20112;-62
2020/12/26 09:39:08;;;;;;;23.15;14.68;;;128.00;2252.80;;;;;;5112264;28;20046;-62
2020/12/26 09:41:48;;;;;;;62.63;35.85;;;128.10;2252.80;;;;;;5114832;28;20039;-63
2020/12/26 09:44:15;;;;;;;40.10;22.63;;;128.20;2252.80;;;;;;5114811;28;20030;-63
2020/12/26 09:46:42;;;;;;;12.30;8.20;;;128.30;2252.80;;;;;;5113880;28;20039;-63
2020/12/26 09:49:09;;;;;;;59.60;37.20;;;128.20;2252.80;;;;;;5099336;28;20020;-64
2020/12/26 09:51:36;;;;;;;15.13;9.70;;;128.30;2252.80;;;;;;5107022;28;20390;-63
2020/12/26 09:54:02;;;;;;;15.70;10.98;;;128.30;2252.80;;;;;;5103985;28;20027;-61
2020/12/26 09:56:28;;;;;;;18.27;14.25;;;128.30;2252.80;;;;;;5105949;28;20028;-64
2020/12/26 09:58:54;;;;;;;18.75;12.68;;;128.20;2252.80;;;;;;5105190;28;20027;-64
2020/12/26 10:01:21;;;;;;;11.25;7.28;;;128.30;2252.80;;;;;;5106826;28;20024;-64
2020/12/26 10:03:49;;;;;;;12.65;7.22;;;128.40;2252.80;;;;;;5107976;28;20026;-63
2020/12/26 10:06:17;;;;;;;13.93;7.05;;;128.40;2252.80;;;;;;5108993;28;20072;-62
2020/12/26 10:08:44;;;;;;;14.23;9.45;;;128.40;2252.80;;;;;;5109556;28;20313;-64
2020/12/26 10:11:11;;;;;;;23.20;12.05;;;128.30;2252.80;;;;;;5108822;28;20029;-63
2020/12/26 10:13:38;;;;;;;18.00;11.52;;;128.40;2252.80;;;;;;5108541;28;20059;-62
2020/12/26 10:16:04;;;;;;;15.82;11.00;;;128.40;2252.80;;;;;;5115032;28;20039;-63
2020/12/26 10:18:30;;;;;;;15.50;7.80;;;128.30;2252.80;;;;;;5119244;28;20031;-63
2020/12/26 10:20:57;;;;;;;12.05;7.95;;;128.40;2252.80;;;;;;5118929;28;20095;-63
2020/12/26 10:23:23;;;;;;;9.88;5.85;;;128.20;2252.80;;;;;;5118781;28;20024;-63
2020/12/26 10:25:50;;;;;;;10.65;7.07;;;128.10;2252.80;;;;;;5119780;28;20023;-62
2020/12/26 10:28:16;;;;;;;10.27;7.05;;;128.00;2252.80;;;;;;5120025;28;20034;-63
2020/12/26 10:30:42;;;;;;;9.48;6.05;;;128.00;2252.80;;;;;;5117446;27;20030;-62
2020/12/26 10:33:08;;;;;;;14.55;11.30;;;128.00;2252.80;;;;;;5116712;28;20048;-61
2020/12/26 10:35:34;;;;;;;12.32;8.82;;;128.10;2252.80;;;;;;5118217;28;20307;-62
2020/12/26 10:38:00;;;;;;;12.95;6.90;;;128.30;2252.80;;;;;;5118157;28;20035;-64
2020/12/26 10:40:25;;;;;;;14.20;9.23;;;128.30;2252.80;;;;;;5118050;28;20420;-64
2020/12/26 10:42:51;;;;;;;11.93;7.45;;;128.30;2252.80;;;;;;5116661;28;20384;-63
2020/12/26 10:45:17;;;;;;;17.45;12.25;;;128.40;2252.80;;;;;;5115167;28;20035;-63
2020/12/26 10:47:43;;;;;;;73.07;29.23;;;128.40;2252.80;;;;;;5115655;28;20020;-64
2020/12/26 10:50:09;;;;;;;29.55;13.57;;;128.50;2252.80;;;;;;5117865;28;20035;-63
2020/12/26 10:52:35;;;;;;;69.63;28.20;;;128.50;2252.80;;;;;;5117263;28;20020;-63
2020/12/26 10:55:00;;;;;;;8.65;4.95;;;128.50;2252.80;;;;;;5117536;28;20042;-64
2020/12/26 10:57:26;;;;;;;11.68;6.20;;;128.40;2252.80;;;;;;5117267;28;20065;-63
2020/12/26 10:59:52;;;;;;;15.48;7.97;;;128.30;2252.80;;;;;;5117051;27;20031;-63
2020/12/26 11:02:18;;;;;;;8.10;4.97;;;128.10;2252.80;;;;;;5116545;27;20031;-62
2020/12/26 11:04:46;;;;;;;11.18;5.63;;;128.00;2252.80;;;;;;5117418;28;20096;-66
2020/12/26 11:07:11;;;;;;;7.73;4.73;;;103.30;2227.20;;;;;;5116803;28;20043;-64
2020/12/26 11:09:37;;;;;;;10.57;5.50;;;103.20;2227.20;;;;;;5117539;28;20077;-64
2020/12/26 11:12:03;;;;;;;32.80;13.18;;;103.20;2227.20;;;;;;5106083;28;20039;-62
2020/12/26 11:14:29;;;;;;;24.35;11.00;;;103.30;2227.20;;;;;;5102548;28;20047;-65
2020/12/26 11:16:57;;;;;;;16.23;7.78;;;103.30;2227.20;;;;;;5105400;28;20578;-66
2020/12/26 11:19:23;;;;;;;11.63;6.38;;;103.10;2227.20;;;;;;5103656;28;20071;-65
2020/12/26 11:21:53;;;;;;;222.23;73.90;;;103.20;2227.20;;;;;;5106773;28;20047;-64
2020/12/26 11:24:19;;;;;;;191.32;70.45;;;103.10;2227.20;;;;;;5103407;28;20030;-64
2020/12/26 11:26:46;;;;;;;26.58;13.35;;;103.20;2227.20;;;;;;5103057;28;20407;-64
2020/12/26 11:29:13;;;;;;;26.75;13.00;;;103.20;2227.20;;;;;;5106658;28;20130;-64
2020/12/26 11:31:39;;;;;;;44.63;21.58;;;103.20;2227.20;;;;;;5102294;28;20368;-65
2020/12/26 11:34:05;;;;;;;13.55;7.00;;;103.30;2227.20;;;;;;5105597;28;20028;-64
2020/12/26 11:36:31;;;;;;;51.53;28.05;;;103.20;2227.20;;;;;;5099710;28;20491;-64
2020/12/26 11:39:00;;;;;;;14.65;8.27;;;103.20;2227.20;;;;;;5105596;28;20062;-66
2020/12/26 11:41:28;;;;;;;48.78;29.80;;;103.20;2227.20;;;;;;5116983;28;20030;-66
2020/12/26 11:43:55;;;;;;;14.63;8.50;;;103.20;2227.20;;;;;;5113240;28;20035;-65
2020/12/26 11:46:21;;;;;;;15.60;9.40;;;103.20;2227.20;;;;;;5103163;28;20420;-68
2020/12/26 11:48:47;;;;;;;12.68;8.15;;;103.10;2227.20;;;;;;5106368;28;20031;-64
2020/12/26 11:51:14;;;;;;;13.35;7.75;;;103.10;2227.20;;;;;;5106602;28;20031;-64
2020/12/26 11:53:40;;;;;;;14.63;7.95;;;103.10;2227.20;;;;;;5116604;28;20051;-65
2020/12/26 11:56:10;;;;;;;12.30;7.35;;;103.10;2227.20;;;;;;5115336;28;20413;-65
2020/12/26 11:58:37;;;;;;;10.00;6.70;;;103.10;2227.20;;;;;;5114979;27;20092;-63
2020/12/26 12:01:04;;;;;;;10.98;6.22;;;103.00;2227.20;;;;;;5115741;28;20035;-62
2020/12/26 12:03:31;;;;;;;11.75;7.05;;;102.80;2227.20;;;;;;5102664;28;20425;-65
2020/12/26 12:05:56;;;;;;;12.85;8.07;;;102.80;2227.20;;;;;;5101828;28;20031;-63